Briggsville, Wisconsin
Current Conditions -  °F | °C
As of 1:10 PM on Sunday 21 Dec 2014 (Local Time) from KDLL Reporting Station
Haze Haze  
Wind Chill: 26°   Ceiling: 900
Heat Index: 35°   Visibility: 4mi
Dew Point: 32°   Wind: 15mph
Humidity: 89%   Direction: 190°S
Pressure: 29.96"   Gusts: 21mph
Location:  43.65°N, 89.59°W
Report Text: KDLL 211910Z AUTO 19013G18KT 4SM BR OVC009 02/00 A2996 RMK AO2 T00170000
Loading
Personal Weather Stations






























Interactive Weather Map New forecast layout! Learn more

10-Day Weather Forecast

Advertisements
Track Severe Weather on mobile